sensor_id;sensor_type;location;lat;lon;timestamp;pressure;altitude;pressure_sealevel;temperature;humidity
79331;BME280;68797;49.782;19.054;2023-07-29T00:01:34;96696.34;;;16.87;87.28
79331;BME280;68797;49.782;19.054;2023-07-29T00:04:06;96663.38;;;16.72;87.53
79331;BME280;68797;49.782;19.054;2023-07-29T00:06:38;96685.66;;;16.99;87.06
79331;BME280;68797;49.782;19.054;2023-07-29T00:09:22;96676.53;;;16.89;86.94
79331;BME280;68797;49.782;19.054;2023-07-29T00:11:49;96669.34;;;16.90;87.06
79331;BME280;68797;49.782;19.054;2023-07-29T00:14:29;96667.97;;;16.97;86.77
79331;BME280;68797;49.782;19.054;2023-07-29T00:16:59;96677.16;;;16.93;86.97
79331;BME280;68797;49.782;19.054;2023-07-29T00:19:33;96696.41;;;16.99;87.14
79331;BME280;68797;49.782;19.054;2023-07-29T00:22:08;96639.47;;;16.69;87.27
79331;BME280;68797;49.782;19.054;2023-07-29T00:24:39;96681.66;;;16.92;87.75
79331;BME280;68797;49.782;19.054;2023-07-29T00:27:07;96636.41;;;16.61;87.82
79331;BME280;68797;49.782;19.054;2023-07-29T00:29:34;96679.34;;;17.00;87.02
79331;BME280;68797;49.782;19.054;2023-07-29T00:32:06;96635.81;;;16.70;87.78
79331;BME280;68797;49.782;19.054;2023-07-29T00:34:34;96647.50;;;16.69;87.95
79331;BME280;68797;49.782;19.054;2023-07-29T00:37:05;96659.44;;;16.77;88.18
79331;BME280;68797;49.782;19.054;2023-07-29T00:39:32;96626.28;;;16.51;88.31
79331;BME280;68797;49.782;19.054;2023-07-29T00:42:08;96656.56;;;16.66;88.19
79331;BME280;68797;49.782;19.054;2023-07-29T00:44:35;96686.38;;;16.89;87.57
79331;BME280;68797;49.782;19.054;2023-07-29T00:47:24;96647.00;;;16.62;87.70
79331;BME280;68797;49.782;19.054;2023-07-29T00:49:52;96655.44;;;16.70;87.91
79331;BME280;68797;49.782;19.054;2023-07-29T00:52:28;96668.34;;;16.78;88.34
79331;BME280;68797;49.782;19.054;2023-07-29T00:54:58;96659.25;;;16.66;88.47
79331;BME280;68797;49.782;19.054;2023-07-29T00:57:27;96647.72;;;16.51;88.53
79331;BME280;68797;49.782;19.054;2023-07-29T00:59:59;96679.34;;;16.73;88.76
79331;BME280;68797;49.782;19.054;2023-07-29T01:02:30;96665.69;;;16.64;88.33
79331;BME280;68797;49.782;19.054;2023-07-29T01:05:02;96685.66;;;16.72;88.55
79331;BME280;68797;49.782;19.054;2023-07-29T01:07:47;96655.94;;;16.48;89.30
79331;BME280;68797;49.782;19.054;2023-07-29T01:10:55;96652.88;;;16.54;88.63
79331;BME280;68797;49.782;19.054;2023-07-29T01:13:39;96637.19;;;16.48;88.99
79331;BME280;68797;49.782;19.054;2023-07-29T01:16:42;96695.38;;;16.88;88.64
79331;BME280;68797;49.782;19.054;2023-07-29T01:19:39;96641.97;;;16.58;89.02
79331;BME280;68797;49.782;19.054;2023-07-29T01:22:19;96688.09;;;16.90;89.06
79331;BME280;68797;49.782;19.054;2023-07-29T01:24:49;96631.72;;;16.64;88.00
79331;BME280;68797;49.782;19.054;2023-07-29T01:27:17;96683.63;;;17.03;87.92
79331;BME280;68797;49.782;19.054;2023-07-29T01:29:47;96675.06;;;16.98;88.13
79331;BME280;68797;49.782;19.054;2023-07-29T01:32:23;96691.28;;;17.09;88.22
79331;BME280;68797;49.782;19.054;2023-07-29T01:35:04;96691.94;;;17.12;87.79
79331;BME280;68797;49.782;19.054;2023-07-29T01:37:38;96641.13;;;16.84;88.08
79331;BME280;68797;49.782;19.054;2023-07-29T01:40:14;96693.09;;;17.08;88.37
79331;BME280;68797;49.782;19.054;2023-07-29T01:42:46;96647.25;;;16.86;88.41
79331;BME280;68797;49.782;19.054;2023-07-29T01:45:13;96691.06;;;17.12;87.64
79331;BME280;68797;49.782;19.054;2023-07-29T01:47:42;96658.66;;;17.02;88.20
79331;BME280;68797;49.782;19.054;2023-07-29T01:50:16;96660.22;;;16.92;88.77
79331;BME280;68797;49.782;19.054;2023-07-29T01:52:52;96669.16;;;17.05;88.84
79331;BME280;68797;49.782;19.054;2023-07-29T01:55:25;96666.66;;;16.90;88.35
79331;BME280;68797;49.782;19.054;2023-07-29T01:57:56;96677.31;;;17.04;89.01
79331;BME280;68797;49.782;19.054;2023-07-29T02:00:28;96694.34;;;17.03;88.97
79331;BME280;68797;49.782;19.054;2023-07-29T02:03:04;96684.66;;;16.88;89.36
79331;BME280;68797;49.782;19.054;2023-07-29T02:05:33;96657.81;;;16.75;89.21
79331;BME280;68797;49.782;19.054;2023-07-29T02:08:00;96692.59;;;16.89;89.19
79331;BME280;68797;49.782;19.054;2023-07-29T02:10:31;96705.53;;;16.82;89.20
79331;BME280;68797;49.782;19.054;2023-07-29T02:13:03;96657.81;;;16.61;89.19
79331;BME280;68797;49.782;19.054;2023-07-29T02:15:30;96694.72;;;16.84;89.08
79331;BME280;68797;49.782;19.054;2023-07-29T02:18:02;96679.34;;;16.73;88.88
79331;BME280;68797;49.782;19.054;2023-07-29T02:20:37;96710.50;;;16.89;88.47
79331;BME280;68797;49.782;19.054;2023-07-29T02:23:08;96689.56;;;16.81;88.77
79331;BME280;68797;49.782;19.054;2023-07-29T02:25:38;96659.66;;;16.60;88.75
79331;BME280;68797;49.782;19.054;2023-07-29T02:28:09;96688.25;;;16.74;88.88
79331;BME280;68797;49.782;19.054;2023-07-29T02:30:41;96676.47;;;16.62;89.24
79331;BME280;68797;49.782;19.054;2023-07-29T02:33:12;96698.56;;;16.80;88.86
79331;BME280;68797;49.782;19.054;2023-07-29T02:35:39;96648.88;;;16.47;89.42
79331;BME280;68797;49.782;19.054;2023-07-29T02:38:14;96680.22;;;16.74;89.06
79331;BME280;68797;49.782;19.054;2023-07-29T02:40:41;96666.06;;;16.58;89.28
79331;BME280;68797;49.782;19.054;2023-07-29T02:43:12;96698.41;;;16.69;89.61
79331;BME280;68797;49.782;19.054;2023-07-29T02:45:39;96677.28;;;16.50;90.03
79331;BME280;68797;49.782;19.054;2023-07-29T02:48:13;96698.88;;;16.75;89.50
79331;BME280;68797;49.782;19.054;2023-07-29T02:50:42;96715.13;;;16.72;89.60
79331;BME280;68797;49.782;19.054;2023-07-29T02:53:11;96700.22;;;16.68;89.87
79331;BME280;68797;49.782;19.054;2023-07-29T02:55:42;96704.22;;;16.75;89.27
79331;BME280;68797;49.782;19.054;2023-07-29T02:58:10;96703.84;;;16.67;89.71
79331;BME280;68797;49.782;19.054;2023-07-29T03:00:37;96673.44;;;16.54;90.36
79331;BME280;68797;49.782;19.054;2023-07-29T03:03:22;96677.63;;;16.58;89.65
79331;BME280;68797;49.782;19.054;2023-07-29T03:06:04;96695.72;;;16.69;89.52
79331;BME280;68797;49.782;19.054;2023-07-29T03:08:51;96700.59;;;16.76;89.21
79331;BME280;68797;49.782;19.054;2023-07-29T03:11:22;96649.44;;;16.52;89.09
79331;BME280;68797;49.782;19.054;2023-07-29T03:13:51;96673.88;;;16.61;88.82
79331;BME280;68797;49.782;19.054;2023-07-29T03:16:18;96692.84;;;16.72;88.87
79331;BME280;68797;49.782;19.054;2023-07-29T03:18:58;96702.09;;;16.80;88.72
79331;BME280;68797;49.782;19.054;2023-07-29T03:21:35;96687.47;;;16.72;88.87
79331;BME280;68797;49.782;19.054;2023-07-29T03:24:03;96660.16;;;16.52;89.05
79331;BME280;68797;49.782;19.054;2023-07-29T03:26:32;96658.34;;;16.53;89.23
79331;BME280;68797;49.782;19.054;2023-07-29T03:29:01;96694.56;;;16.73;89.23
79331;BME280;68797;49.782;19.054;2023-07-29T03:31:28;96683.56;;;16.63;89.60
79331;BME280;68797;49.782;19.054;2023-07-29T03:34:00;96674.00;;;16.59;89.51
79331;BME280;68797;49.782;19.054;2023-07-29T03:36:28;96704.69;;;16.82;89.44
79331;BME280;68797;49.782;19.054;2023-07-29T03:38:56;96675.31;;;16.66;88.90
79331;BME280;68797;49.782;19.054;2023-07-29T03:41:23;96703.91;;;16.80;89.31
79331;BME280;68797;49.782;19.054;2023-07-29T03:43:53;96685.75;;;16.71;89.12
79331;BME280;68797;49.782;19.054;2023-07-29T03:46:20;96705.53;;;16.82;89.10
79331;BME280;68797;49.782;19.054;2023-07-29T03:48:49;96691.38;;;16.80;88.77
79331;BME280;68797;49.782;19.054;2023-07-29T03:51:17;96718.81;;;16.98;88.93
79331;BME280;68797;49.782;19.054;2023-07-29T03:53:47;96725.88;;;16.99;88.51
79331;BME280;68797;49.782;19.054;2023-07-29T03:56:14;96719.28;;;16.91;89.43
79331;BME280;68797;49.782;19.054;2023-07-29T03:58:45;96697.31;;;16.86;88.51
79331;BME280;68797;49.782;19.054;2023-07-29T04:01:16;96726.63;;;17.01;88.77
79331;BME280;68797;49.782;19.054;2023-07-29T04:03:55;96707.94;;;16.87;89.06
79331;BME280;68797;49.782;19.054;2023-07-29T04:06:23;96683.56;;;16.77;89.04
79331;BME280;68797;49.782;19.054;2023-07-29T04:08:53;96681.25;;;16.71;89.03
79331;BME280;68797;49.782;19.054;2023-07-29T04:11:23;96719.56;;;17.00;88.82
79331;BME280;68797;49.782;19.054;2023-07-29T04:13:53;96702.81;;;16.97;88.55
79331;BME280;68797;49.782;19.054;2023-07-29T04:16:23;96696.03;;;16.91;88.55
79331;BME280;68797;49.782;19.054;2023-07-29T04:18:52;96695.28;;;16.89;89.15
79331;BME280;68797;49.782;19.054;2023-07-29T04:21:23;96722.38;;;17.11;89.29
79331;BME280;68797;49.782;19.054;2023-07-29T04:23:54;96716.56;;;17.05;90.21
79331;BME280;68797;49.782;19.054;2023-07-29T04:26:22;96715.31;;;17.10;89.87
79331;BME280;68797;49.782;19.054;2023-07-29T04:28:53;96670.03;;;17.06;88.90
79331;BME280;68797;49.782;19.054;2023-07-29T04:31:21;96690.69;;;17.31;88.25
79331;BME280;68797;49.782;19.054;2023-07-29T04:33:51;96714.81;;;17.70;87.54
79331;BME280;68797;49.782;19.054;2023-07-29T04:36:18;96718.47;;;17.82;87.15
79331;BME280;68797;49.782;19.054;2023-07-29T04:38:46;96718.16;;;17.99;86.43
79331;BME280;68797;49.782;19.054;2023-07-29T04:41:13;96706.66;;;17.97;86.40
79331;BME280;68797;49.782;19.054;2023-07-29T04:43:42;96713.00;;;18.22;85.56
79331;BME280;68797;49.782;19.054;2023-07-29T04:46:09;96693.34;;;18.21;85.30
79331;BME280;68797;49.782;19.054;2023-07-29T04:48:39;96721.53;;;18.40;84.76
79331;BME280;68797;49.782;19.054;2023-07-29T04:51:07;96694.50;;;18.30;84.70
79331;BME280;68797;49.782;19.054;2023-07-29T04:53:35;96730.47;;;18.53;84.10
79331;BME280;68797;49.782;19.054;2023-07-29T04:56:03;96697.94;;;18.32;84.27
79331;BME280;68797;49.782;19.054;2023-07-29T04:58:32;96705.72;;;18.48;84.72
79331;BME280;68797;49.782;19.054;2023-07-29T05:01:07;96701.97;;;18.50;82.82
79331;BME280;68797;49.782;19.054;2023-07-29T05:03:38;96694.38;;;18.44;84.26
79331;BME280;68797;49.782;19.054;2023-07-29T05:06:09;96722.59;;;18.50;83.17
79331;BME280;68797;49.782;19.054;2023-07-29T05:08:37;96737.66;;;18.65;84.16
79331;BME280;68797;49.782;19.054;2023-07-29T05:11:06;96734.63;;;18.57;84.06
79331;BME280;68797;49.782;19.054;2023-07-29T05:13:34;96719.63;;;18.42;84.92
79331;BME280;68797;49.782;19.054;2023-07-29T05:16:02;96741.84;;;18.56;85.99
79331;BME280;68797;49.782;19.054;2023-07-29T05:18:29;96725.50;;;18.47;84.71
79331;BME280;68797;49.782;19.054;2023-07-29T05:20:56;96733.88;;;18.55;85.22
79331;BME280;68797;49.782;19.054;2023-07-29T05:23:23;96708.09;;;18.52;83.80
79331;BME280;68797;49.782;19.054;2023-07-29T05:25:53;96736.88;;;18.76;83.86
79331;BME280;68797;49.782;19.054;2023-07-29T05:28:22;96716.19;;;18.89;81.81
79331;BME280;68797;49.782;19.054;2023-07-29T05:30:49;96734.16;;;19.12;81.88
79331;BME280;68797;49.782;19.054;2023-07-29T05:33:17;96714.06;;;19.05;83.12
79331;BME280;68797;49.782;19.054;2023-07-29T05:35:46;96723.00;;;19.30;80.28
79331;BME280;68797;49.782;19.054;2023-07-29T05:38:18;96704.19;;;19.30;80.60
79331;BME280;68797;49.782;19.054;2023-07-29T05:40:48;96692.19;;;19.58;79.81
79331;BME280;68797;49.782;19.054;2023-07-29T05:43:16;96719.56;;;19.87;79.72
79331;BME280;68797;49.782;19.054;2023-07-29T05:45:43;96739.06;;;20.24;78.22
79331;BME280;68797;49.782;19.054;2023-07-29T05:48:13;96713.72;;;20.38;75.41
79331;BME280;68797;49.782;19.054;2023-07-29T05:50:44;96743.66;;;21.23;73.33
79331;BME280;68797;49.782;19.054;2023-07-29T05:53:15;96706.06;;;21.74;70.44
79331;BME280;68797;49.782;19.054;2023-07-29T05:55:50;96742.59;;;22.61;67.92
79331;BME280;68797;49.782;19.054;2023-07-29T05:58:18;96691.59;;;22.87;66.56
79331;BME280;68797;49.782;19.054;2023-07-29T06:00:48;96714.88;;;23.19;64.72
79331;BME280;68797;49.782;19.054;2023-07-29T06:03:32;96715.38;;;23.72;63.02
79331;BME280;68797;49.782;19.054;2023-07-29T06:06:02;96737.28;;;23.60;62.11
79331;BME280;68797;49.782;19.054;2023-07-29T06:08:32;96699.88;;;24.31;62.05
79331;BME280;68797;49.782;19.054;2023-07-29T06:11:03;96733.84;;;24.72;59.80
79331;BME280;68797;49.782;19.054;2023-07-29T06:13:33;96707.13;;;25.05;59.70
79331;BME280;68797;49.782;19.054;2023-07-29T06:16:04;96739.41;;;25.53;57.43
79331;BME280;68797;49.782;19.054;2023-07-29T06:18:37;96706.47;;;25.92;57.09
79331;BME280;68797;49.782;19.054;2023-07-29T06:21:09;96742.38;;;25.77;56.04
79331;BME280;68797;49.782;19.054;2023-07-29T06:23:44;96693.84;;;24.74;56.11
79331;BME280;68797;49.782;19.054;2023-07-29T06:26:12;96700.81;;;24.77;58.23
79331;BME280;68797;49.782;19.054;2023-07-29T06:28:42;96708.06;;;25.76;56.37
79331;BME280;68797;49.782;19.054;2023-07-29T06:31:13;96700.66;;;25.33;55.02
79331;BME280;68797;49.782;19.054;2023-07-29T06:33:46;96746.44;;;25.73;57.43
79331;BME280;68797;49.782;19.054;2023-07-29T06:36:15;96754.66;;;26.25;55.34
79331;BME280;68797;49.782;19.054;2023-07-29T06:38:42;96744.97;;;26.41;52.71
79331;BME280;68797;49.782;19.054;2023-07-29T06:41:12;96713.41;;;26.30;51.83
79331;BME280;68797;49.782;19.054;2023-07-29T06:43:39;96733.94;;;26.76;52.23
79331;BME280;68797;49.782;19.054;2023-07-29T06:46:12;96757.75;;;26.48;51.57
79331;BME280;68797;49.782;19.054;2023-07-29T06:48:45;96745.41;;;26.88;50.79
79331;BME280;68797;49.782;19.054;2023-07-29T06:51:12;96746.47;;;26.61;50.67
79331;BME280;68797;49.782;19.054;2023-07-29T06:53:39;96752.44;;;26.99;51.67
79331;BME280;68797;49.782;19.054;2023-07-29T06:56:11;96744.44;;;27.31;51.82
79331;BME280;68797;49.782;19.054;2023-07-29T06:58:43;96734.94;;;27.52;51.64
79331;BME280;68797;49.782;19.054;2023-07-29T07:01:27;96752.84;;;27.62;50.77
79331;BME280;68797;49.782;19.054;2023-07-29T07:03:58;96721.31;;;27.60;50.32
79331;BME280;68797;49.782;19.054;2023-07-29T07:06:29;96734.50;;;27.81;50.38
79331;BME280;68797;49.782;19.054;2023-07-29T07:09:02;96722.75;;;27.80;49.32
79331;BME280;68797;49.782;19.054;2023-07-29T07:11:30;96710.97;;;27.79;49.48
79331;BME280;68797;49.782;19.054;2023-07-29T07:13:57;96739.47;;;28.10;47.51
79331;BME280;68797;49.782;19.054;2023-07-29T07:16:24;96749.00;;;28.14;46.22
79331;BME280;68797;49.782;19.054;2023-07-29T07:18:59;96730.59;;;27.83;51.90
79331;BME280;68797;49.782;19.054;2023-07-29T07:21:38;96739.63;;;26.83;49.54
79331;BME280;68797;49.782;19.054;2023-07-29T07:24:22;96724.09;;;26.49;53.77
79331;BME280;68797;49.782;19.054;2023-07-29T07:26:57;96751.59;;;26.64;54.03
79331;BME280;68797;49.782;19.054;2023-07-29T07:29:24;96714.56;;;26.01;54.59
79331;BME280;68797;49.782;19.054;2023-07-29T07:31:53;96742.91;;;25.81;56.66
79331;BME280;68797;49.782;19.054;2023-07-29T07:34:36;96745.75;;;25.44;56.56
79331;BME280;68797;49.782;19.054;2023-07-29T07:37:09;96735.28;;;25.31;56.60
79331;BME280;68797;49.782;19.054;2023-07-29T07:40:02;96749.16;;;25.46;56.75
79331;BME280;68797;49.782;19.054;2023-07-29T07:42:32;96730.16;;;25.46;55.76
79331;BME280;68797;49.782;19.054;2023-07-29T07:45:01;96751.91;;;25.64;53.83
79331;BME280;68797;49.782;19.054;2023-07-29T07:47:28;96755.91;;;25.87;54.88
79331;BME280;68797;49.782;19.054;2023-07-29T07:50:06;96751.72;;;25.47;54.42
79331;BME280;68797;49.782;19.054;2023-07-29T07:52:38;96757.16;;;25.47;58.25
79331;BME280;68797;49.782;19.054;2023-07-29T07:55:11;96716.28;;;25.04;55.96
79331;BME280;68797;49.782;19.054;2023-07-29T07:57:42;96741.06;;;25.18;58.29
79331;BME280;68797;49.782;19.054;2023-07-29T08:00:10;96751.22;;;25.16;55.56
79331;BME280;68797;49.782;19.054;2023-07-29T08:02:44;96736.28;;;24.93;56.01
79331;BME280;68797;49.782;19.054;2023-07-29T08:05:15;96753.34;;;24.85;57.76
79331;BME280;68797;49.782;19.054;2023-07-29T08:07:42;96733.31;;;24.59;59.95
79331;BME280;68797;49.782;19.054;2023-07-29T08:10:09;96738.81;;;24.30;58.32
79331;BME280;68797;49.782;19.054;2023-07-29T08:12:47;96752.94;;;24.24;61.32
79331;BME280;68797;49.782;19.054;2023-07-29T08:15:15;96732.97;;;24.15;63.54
79331;BME280;68797;49.782;19.054;2023-07-29T08:17:42;96738.97;;;24.19;61.39
79331;BME280;68797;49.782;19.054;2023-07-29T08:20:12;96709.31;;;24.08;61.77
79331;BME280;68797;49.782;19.054;2023-07-29T08:22:40;96734.81;;;24.24;65.61
79331;BME280;68797;49.782;19.054;2023-07-29T08:25:08;96700.44;;;24.15;64.54
79331;BME280;68797;49.782;19.054;2023-07-29T08:27:38;96731.28;;;24.04;63.56
79331;BME280;68797;49.782;19.054;2023-07-29T08:30:08;96721.75;;;23.91;63.82
79331;BME280;68797;49.782;19.054;2023-07-29T08:32:51;96696.81;;;23.58;64.96
79331;BME280;68797;49.782;19.054;2023-07-29T08:35:18;96699.06;;;23.24;63.46
79331;BME280;68797;49.782;19.054;2023-07-29T08:37:46;96748.22;;;23.48;63.99
79331;BME280;68797;49.782;19.054;2023-07-29T08:40:13;96731.38;;;23.16;65.06
79331;BME280;68797;49.782;19.054;2023-07-29T08:42:45;96727.53;;;23.09;67.32
79331;BME280;68797;49.782;19.054;2023-07-29T08:45:21;96743.78;;;23.18;67.27
79331;BME280;68797;49.782;19.054;2023-07-29T08:47:52;96731.38;;;23.06;67.58
79331;BME280;68797;49.782;19.054;2023-07-29T08:50:26;96723.06;;;22.88;71.03
79331;BME280;68797;49.782;19.054;2023-07-29T08:53:10;96736.63;;;22.98;70.72
79331;BME280;68797;49.782;19.054;2023-07-29T08:55:41;96727.94;;;22.64;71.42
79331;BME280;68797;49.782;19.054;2023-07-29T08:58:12;96735.19;;;22.64;72.90
79331;BME280;68797;49.782;19.054;2023-07-29T09:00:41;96700.09;;;22.43;74.23
79331;BME280;68797;49.782;19.054;2023-07-29T09:03:08;96743.59;;;22.70;75.67
79331;BME280;68797;49.782;19.054;2023-07-29T09:05:38;96715.94;;;22.57;75.96
79331;BME280;68797;49.782;19.054;2023-07-29T09:08:06;96727.38;;;22.70;74.49
79331;BME280;68797;49.782;19.054;2023-07-29T09:10:45;96734.91;;;22.67;74.90
79331;BME280;68797;49.782;19.054;2023-07-29T09:13:13;96709.34;;;22.50;75.04
79331;BME280;68797;49.782;19.054;2023-07-29T09:15:43;96701.75;;;22.65;74.13
79331;BME280;68797;49.782;19.054;2023-07-29T09:18:21;96702.56;;;22.86;74.65
79331;BME280;68797;49.782;19.054;2023-07-29T09:20:54;96718.44;;;23.29;74.74
79331;BME280;68797;49.782;19.054;2023-07-29T09:23:26;96716.72;;;23.18;75.12
79331;BME280;68797;49.782;19.054;2023-07-29T09:26:03;96699.72;;;22.97;71.83
79331;BME280;68797;49.782;19.054;2023-07-29T09:28:39;96726.13;;;23.24;73.13
79331;BME280;68797;49.782;19.054;2023-07-29T09:31:22;96735.94;;;23.06;72.95
79331;BME280;68797;49.782;19.054;2023-07-29T09:33:59;96729.97;;;22.81;76.35
79331;BME280;68797;49.782;19.054;2023-07-29T09:36:39;96700.56;;;22.57;77.14
79331;BME280;68797;49.782;19.054;2023-07-29T09:39:14;96747.38;;;22.58;78.55
79331;BME280;68797;49.782;19.054;2023-07-29T09:42:04;96704.75;;;22.10;81.34
79331;BME280;68797;49.782;19.054;2023-07-29T09:44:36;96735.19;;;22.12;80.56
79331;BME280;68797;49.782;19.054;2023-07-29T09:47:06;96704.31;;;21.94;80.98
79331;BME280;68797;49.782;19.054;2023-07-29T09:49:36;96698.84;;;22.05;80.71
79331;BME280;68797;49.782;19.054;2023-07-29T09:52:12;96724.81;;;22.38;82.95
79331;BME280;68797;49.782;19.054;2023-07-29T09:54:41;96724.94;;;22.67;79.35
79331;BME280;68797;49.782;19.054;2023-07-29T09:57:28;96722.94;;;22.69;79.64
79331;BME280;68797;49.782;19.054;2023-07-29T10:00:10;96695.91;;;22.69;79.80
79331;BME280;68797;49.782;19.054;2023-07-29T10:02:45;96709.09;;;22.53;80.01
79331;BME280;68797;49.782;19.054;2023-07-29T10:05:15;96722.00;;;22.80;78.75
79331;BME280;68797;49.782;19.054;2023-07-29T10:07:42;96675.25;;;22.68;76.42
79331;BME280;68797;49.782;19.054;2023-07-29T10:10:09;96690.22;;;22.72;76.66
79331;BME280;68797;49.782;19.054;2023-07-29T10:12:43;96703.75;;;22.72;78.72
79331;BME280;68797;49.782;19.054;2023-07-29T10:15:12;96686.03;;;22.58;76.69
79331;BME280;68797;49.782;19.054;2023-07-29T10:17:42;96704.16;;;22.68;74.12
79331;BME280;68797;49.782;19.054;2023-07-29T10:20:16;96705.28;;;23.05;77.32
79331;BME280;68797;49.782;19.054;2023-07-29T10:22:44;96693.47;;;22.97;76.75
79331;BME280;68797;49.782;19.054;2023-07-29T10:25:33;96717.00;;;23.25;76.39
79331;BME280;68797;49.782;19.054;2023-07-29T10:28:08;96718.56;;;23.37;78.24
79331;BME280;68797;49.782;19.054;2023-07-29T10:30:40;96719.19;;;23.51;77.39
79331;BME280;68797;49.782;19.054;2023-07-29T10:33:13;96714.38;;;23.73;75.59
79331;BME280;68797;49.782;19.054;2023-07-29T10:35:44;96707.94;;;23.74;74.36
79331;BME280;68797;49.782;19.054;2023-07-29T10:38:28;96696.09;;;23.66;74.82
79331;BME280;68797;49.782;19.054;2023-07-29T10:40:59;96717.34;;;23.80;76.11
79331;BME280;68797;49.782;19.054;2023-07-29T10:43:38;96695.25;;;23.75;75.02
79331;BME280;68797;49.782;19.054;2023-07-29T10:46:18;96706.50;;;23.90;74.95
79331;BME280;68797;49.782;19.054;2023-07-29T10:48:59;96681.41;;;23.68;75.53
79331;BME280;68797;49.782;19.054;2023-07-29T10:51:35;96711.91;;;23.90;74.87
79331;BME280;68797;49.782;19.054;2023-07-29T10:57:02;96713.06;;;23.77;75.98
79331;BME280;68797;49.782;19.054;2023-07-29T10:59:36;96673.28;;;23.59;77.57
79331;BME280;68797;49.782;19.054;2023-07-29T11:02:12;96665.44;;;23.56;76.77
79331;BME280;68797;49.782;19.054;2023-07-29T11:04:50;96697.81;;;23.76;74.13
79331;BME280;68797;49.782;19.054;2023-07-29T11:07:24;96692.38;;;23.86;74.87
79331;BME280;68797;49.782;19.054;2023-07-29T11:09:58;96693.38;;;23.85;69.89
79331;BME280;68797;49.782;19.054;2023-07-29T11:15:30;96680.38;;;23.89;69.21
79331;BME280;68797;49.782;19.054;2023-07-29T11:18:09;96679.22;;;24.11;67.20
79331;BME280;68797;49.782;19.054;2023-07-29T11:21:04;96679.88;;;24.32;64.35
79331;BME280;68797;49.782;19.054;2023-07-29T11:23:36;96689.28;;;24.28;61.32
79331;BME280;68797;49.782;19.054;2023-07-29T11:26:06;96642.44;;;23.98;63.71
79331;BME280;68797;49.782;19.054;2023-07-29T11:28:38;96641.16;;;23.83;64.43
79331;BME280;68797;49.782;19.054;2023-07-29T11:31:12;96672.38;;;24.07;62.67
79331;BME280;68797;49.782;19.054;2023-07-29T11:33:43;96681.09;;;24.00;65.69
79331;BME280;68797;49.782;19.054;2023-07-29T11:36:21;96659.03;;;23.76;70.29
79331;BME280;68797;49.782;19.054;2023-07-29T11:38:52;96653.34;;;23.60;75.76
79331;BME280;68797;49.782;19.054;2023-07-29T11:41:23;96684.28;;;23.67;74.55
79331;BME280;68797;49.782;19.054;2023-07-29T11:43:54;96678.25;;;23.54;76.49
79331;BME280;68797;49.782;19.054;2023-07-29T11:46:24;96686.53;;;23.42;78.11
79331;BME280;68797;49.782;19.054;2023-07-29T11:48:57;96644.78;;;23.06;78.80
79331;BME280;68797;49.782;19.054;2023-07-29T11:51:29;96684.66;;;23.14;79.68
79331;BME280;68797;49.782;19.054;2023-07-29T11:54:09;96667.38;;;22.86;80.24
79331;BME280;68797;49.782;19.054;2023-07-29T11:56:43;96679.47;;;22.92;78.14
79331;BME280;68797;49.782;19.054;2023-07-29T11:59:12;96650.06;;;22.68;78.44
79331;BME280;68797;49.782;19.054;2023-07-29T12:01:41;96679.72;;;22.79;80.38
79331;BME280;68797;49.782;19.054;2023-07-29T12:04:11;96671.38;;;22.61;78.90
79331;BME280;68797;49.782;19.054;2023-07-29T12:06:39;96674.09;;;22.61;81.71
79331;BME280;68797;49.782;19.054;2023-07-29T12:09:11;96688.78;;;22.68;81.26
79331;BME280;68797;49.782;19.054;2023-07-29T12:11:45;96671.81;;;22.56;81.50
79331;BME280;68797;49.782;19.054;2023-07-29T12:14:16;96688.78;;;22.68;82.14
79331;BME280;68797;49.782;19.054;2023-07-29T12:16:51;96661.34;;;22.32;82.88
79331;BME280;68797;49.782;19.054;2023-07-29T12:19:31;96684.25;;;22.38;82.76
79331;BME280;68797;49.782;19.054;2023-07-29T12:21:58;96656.97;;;22.11;81.46
79331;BME280;68797;49.782;19.054;2023-07-29T12:24:40;96699.09;;;22.44;81.32
79331;BME280;68797;49.782;19.054;2023-07-29T12:27:15;96702.50;;;22.46;82.91
79331;BME280;68797;49.782;19.054;2023-07-29T12:29:51;96659.00;;;22.18;79.82
79331;BME280;68797;49.782;19.054;2023-07-29T12:32:19;96660.88;;;22.27;76.91
79331;BME280;68797;49.782;19.054;2023-07-29T12:34:46;96663.47;;;22.29;78.16
79331;BME280;68797;49.782;19.054;2023-07-29T12:37:13;96668.59;;;22.32;74.59
79331;BME280;68797;49.782;19.054;2023-07-29T12:39:44;96658.91;;;22.29;75.10
79331;BME280;68797;49.782;19.054;2023-07-29T12:42:13;96614.50;;;22.01;77.84
79331;BME280;68797;49.782;19.054;2023-07-29T12:44:40;96676.16;;;22.38;77.31
79331;BME280;68797;49.782;19.054;2023-07-29T12:47:08;96665.34;;;22.38;77.59
79331;BME280;68797;49.782;19.054;2023-07-29T12:49:38;96666.31;;;22.37;78.54
79331;BME280;68797;49.782;19.054;2023-07-29T12:52:11;96664.63;;;22.36;76.36
79331;BME280;68797;49.782;19.054;2023-07-29T12:54:40;96631.47;;;22.34;71.24
79331;BME280;68797;49.782;19.054;2023-07-29T12:57:18;96676.22;;;22.57;77.35
79331;BME280;68797;49.782;19.054;2023-07-29T13:00:01;96632.19;;;22.36;76.75
79331;BME280;68797;49.782;19.054;2023-07-29T13:02:56;96632.06;;;22.47;77.69
79331;BME280;68797;49.782;19.054;2023-07-29T13:05:26;96630.78;;;22.42;71.82
79331;BME280;68797;49.782;19.054;2023-07-29T13:07:58;96655.63;;;22.66;74.60
79331;BME280;68797;49.782;19.054;2023-07-29T13:10:27;96635.53;;;22.59;79.05
79331;BME280;68797;49.782;19.054;2023-07-29T13:12:54;96636.22;;;22.61;76.85
79331;BME280;68797;49.782;19.054;2023-07-29T13:15:24;96624.28;;;22.54;79.21
79331;BME280;68797;49.782;19.054;2023-07-29T13:17:57;96655.94;;;22.73;74.36
79331;BME280;68797;49.782;19.054;2023-07-29T13:20:32;96645.16;;;22.42;72.61
79331;BME280;68797;49.782;19.054;2023-07-29T13:23:11;96659.81;;;22.40;77.58